Flight Track Log - Related Links

Times and Time Zones

All times are in EDT time to prevent confusion due to time zone crossing. See the CES5387 flight status page for this flight to view local times or setup timezone preferences in your user account.

Time Position Orientation Groundspeed Altitude Reporting Facility
EDT Latitude Longitude Course Direction KTS MPH feet Rate Location/Type
Thu 08:44:00 AM 30.1416 115.3555 226° Southwest  Level Estimated
Thu 08:45:00 AM 30.0727 115.2760 225° Southwest  Level Estimated
Thu 08:46:00 AM 30.0038 115.1966 225° Southwest  Level Estimated
Thu 08:47:00 AM 29.9348 115.1173 225° Southwest  Level Estimated
Thu 08:48:00 AM 29.8658 115.0381 225° Southwest  Level Estimated
Thu 08:49:00 AM 29.7967 114.9590 225° Southwest  Level Estimated
Thu 08:50:00 AM 29.7276 114.8800 225° Southwest  Level Estimated
Thu 08:51:00 AM 29.6584 114.8011 225° Southwest  Level Estimated
Thu 08:52:00 AM 29.5892 114.7224 225° Southwest  Level Estimated
Thu 08:53:00 AM 29.5199 114.6437 225° Southwest  Level Estimated
Thu 08:54:00 AM 29.4506 114.5652 225° Southwest  Level Estimated
Thu 08:55:00 AM 29.3813 114.4867 225° Southwest  Level Estimated
Thu 08:56:00 AM 29.3119 114.4084 225° Southwest  Level Estimated
Thu 08:57:00 AM 29.2424 114.3302 225° Southwest  Level Estimated
Thu 08:58:00 AM 29.1729 114.2521 224° Southwest  Level Estimated
Thu 08:59:00 AM 29.1034 114.1740 224° Southwest  Level Estimated
Thu 09:00:00 AM 29.0338 114.0961 224° Southwest  Level Estimated
Thu 09:01:00 AM 28.9642 114.0183 224° Southwest  Level Estimated
Thu 09:02:00 AM 28.8945 113.9406 224° Southwest  Level Estimated
Thu 09:03:00 AM 28.8248 113.8630 224° Southwest  Level Estimated
Thu 09:04:00 AM 28.7550 113.7856 224° Southwest  Level Estimated
Thu 09:05:00 AM 28.6852 113.7082 224° Southwest  Level Estimated
Thu 09:06:00 AM 28.6154 113.6309 224° Southwest  Level Estimated
Thu 09:07:00 AM 28.5455 113.5537 224° Southwest  Level Estimated
Thu 09:08:00 AM 28.4755 113.4766 224° Southwest  Level Estimated
Thu 09:09:00 AM 28.4056 113.3996 224° Southwest  Level Estimated
Thu 09:10:00 AM 28.3355 113.3228 224° Southwest  Level Estimated
Thu 09:11:00 AM 28.2655 113.2460 224° Southwest  Level Estimated
Thu 09:12:00 AM 28.1954 113.1693 224° Southwest  Level Estimated
Thu 09:13:00 AM 28.1252 113.0928 224° Southwest  Level Estimated
Thu 09:14:00 AM 28.0550 113.0163 224° Southwest  Level Estimated
Thu 09:15:00 AM 27.9848 112.9399 224° Southwest  Level Estimated
Thu 09:16:00 AM 27.9145 112.8636 224° Southwest  Level Estimated
Thu 09:17:00 AM 27.8442 112.7875 224° Southwest  Level Estimated
Thu 09:18:00 AM 27.7738 112.7114 224° Southwest  Level Estimated
Thu 09:19:00 AM 27.7034 112.6354 224° Southwest  Level Estimated
Thu 09:20:00 AM 27.6330 112.5595 224° Southwest  Level Estimated
Thu 09:21:00 AM 27.5625 112.4837 224° Southwest  Level Estimated
Thu 09:22:00 AM 27.4919 112.4081 224° Southwest  Level Estimated
Thu 09:23:00 AM 27.4214 112.3325 224° Southwest  Level Estimated
Thu 09:24:00 AM 27.3508 112.2570 224° Southwest  Level Estimated
Thu 09:25:00 AM 27.2801 112.1816 223° Southwest  Level Estimated
Thu 09:26:00 AM 27.2094 112.1063 223° Southwest  Level Estimated
Thu 09:27:00 AM 27.1387 112.0311 223° Southwest  Level Estimated
Thu 09:28:00 AM 27.0679 111.9560 223° Southwest  Level Estimated
Thu 09:29:00 AM 26.9971 111.8810 223° Southwest  Level Estimated
Thu 09:30:00 AM 26.9263 111.8061 223° Southwest  Level Estimated
Thu 09:31:00 AM 26.8554 111.7312 223° Southwest  Level Estimated
Thu 09:32:00 AM 26.7844 111.6565 223° Southwest  Level Estimated
Thu 09:33:00 AM 26.7135 111.5819 223° Southwest  Level Estimated
Thu 09:34:00 AM 26.6425 111.5073 223° Southwest  Level Estimated
Thu 09:35:00 AM 26.5714 111.4329 223° Southwest  Level Estimated
Thu 09:36:00 AM 26.5003 111.3585 223° Southwest  Level Estimated
Thu 09:37:00 AM 26.4292 111.2842 223° Southwest  Level Estimated
Thu 09:38:00 AM 26.3580 111.2101 223° Southwest  Level Estimated
Thu 09:39:00 AM 26.2868 111.1360 223° Southwest  Level Estimated
Thu 09:40:00 AM 26.2156 111.0620 223° Southwest  Level Estimated
Thu 09:41:00 AM 26.1443 110.9881 223° Southwest  Level Estimated
Thu 09:42:00 AM 26.0730 110.9143 223° Southwest  Level Estimated
Thu 09:43:00 AM 26.0017 110.8406 223° Southwest  Level Estimated
Thu 09:44:00 AM 25.9303 110.7669 223° Southwest  Level Estimated
Thu 09:45:00 AM 25.8589 110.6934 223° Southwest  Level Estimated
Thu 09:46:00 AM 25.7874 110.6199 223° Southwest  Level Estimated
Thu 09:47:00 AM 25.7093 110.5397 223° Southwest  Level Estimated
Thu 09:48:00 AM 25.6311 110.4597 223° Southwest  Level Estimated
Thu 09:49:00 AM 25.5528 110.3797 223° Southwest  Level Estimated
Thu 09:50:00 AM 25.4745 110.2998 223° Southwest  Level Estimated
Thu 09:51:00 AM 25.3962 110.2200 223° Southwest  Level Estimated
Thu 09:52:00 AM 25.3178 110.1404 223° Southwest  Level Estimated
Thu 09:53:00 AM 25.2394 110.0608 223° Southwest  Level Estimated
Thu 09:54:00 AM 25.2181 110.0392 223° Southwest  Level Estimated
Thu 09:55:00 AM 25.2181 110.0392 214° Southwest  Level Estimated
Thu 09:56:00 AM 25.2181 110.0392 214° Southwest  Level Estimated
Thu 09:57:00 AM 25.2181 110.0392 214° Southwest  Level Estimated
Thu 09:58:00 AM 25.2181 110.0392 214° Southwest  Level Estimated
Thu 09:59:00 AM 25.2181 110.0392 214° Southwest  Level Estimated
Thu 10:00:00 AM 25.2181 110.0392 214° Southwest  Level Estimated

Login

Don't have an account? Register now (free) for customized features, flight alerts, and more!